createdAt,value
2023-04-09T00:01:45.720Z,53.58
2023-04-09T00:03:47.353Z,55.30
2023-04-09T00:05:49.010Z,46.95
2023-04-09T00:07:50.485Z,50.22
2023-04-09T00:09:51.943Z,49.50
2023-04-09T00:11:53.917Z,50.17
2023-04-09T00:13:55.455Z,48.85
2023-04-09T00:15:56.915Z,52.70
2023-04-09T00:17:58.774Z,51.80
2023-04-09T00:20:00.488Z,48.33
2023-04-09T00:22:01.961Z,51.03
2023-04-09T00:24:03.590Z,50.70
2023-04-09T00:26:05.330Z,56.88
2023-04-09T00:28:06.826Z,52.83
2023-04-09T00:30:08.938Z,51.35
2023-04-09T00:32:10.492Z,53.58
2023-04-09T00:34:11.995Z,51.90
2023-04-09T00:36:13.542Z,52.67
2023-04-09T00:38:15.487Z,42.15
2023-04-09T00:40:17.059Z,48.00
2023-04-09T00:42:18.518Z,43.53
2023-04-09T00:44:19.985Z,41.80
2023-04-09T00:46:21.520Z,47.22
2023-04-09T00:48:23.129Z,43.83
2023-04-09T00:50:24.704Z,47.78
2023-04-09T00:52:26.593Z,45.70
2023-04-09T00:54:28.319Z,47.67
2023-04-09T00:56:30.258Z,47.75
2023-04-09T00:58:31.824Z,46.35
2023-04-09T01:00:33.300Z,44.55
2023-04-09T01:02:35.240Z,44.10
2023-04-09T01:04:38.522Z,47.13
2023-04-09T01:06:52.188Z,45.95
2023-04-09T01:08:56.648Z,46.40
2023-04-09T01:11:21.949Z,50.72
2023-04-09T01:13:42.650Z,44.40
2023-04-09T01:15:52.096Z,44.17
2023-04-09T01:18:01.473Z,49.20
2023-04-09T01:20:08.973Z,47.05
2023-04-09T01:22:42.427Z,42.30
2023-04-09T01:25:05.156Z,45.80
2023-04-09T01:27:08.280Z,43.78
2023-04-09T01:29:11.126Z,52.55
2023-04-09T01:31:18.903Z,44.67
2023-04-09T01:33:21.903Z,48.45
2023-04-09T01:35:24.441Z,42.10
2023-04-09T01:37:27.011Z,43.30
2023-04-09T01:39:29.485Z,48.17
2023-04-09T01:41:34.183Z,45.22
2023-04-09T01:43:37.321Z,48.80
2023-04-09T01:45:40.242Z,49.53
2023-04-09T01:47:41.882Z,47.78
2023-04-09T01:49:44.737Z,43.28
2023-04-09T01:51:47.507Z,42.40
2023-04-09T01:53:49.553Z,45.40
2023-04-09T01:55:51.067Z,42.53
2023-04-09T01:57:52.589Z,44.53
2023-04-09T01:59:55.070Z,40.45
2023-04-09T02:02:11.288Z,42.42
2023-04-09T02:04:28.371Z,43.72
2023-04-09T02:06:40.055Z,40.88
2023-04-09T02:08:46.383Z,40.65
2023-04-09T02:10:53.654Z,43.28
2023-04-09T02:12:56.475Z,44.72
2023-04-09T02:14:59.997Z,41.60
2023-04-09T02:17:02.138Z,46.17
2023-04-09T02:19:03.815Z,39.55
2023-04-09T02:21:05.966Z,42.20
2023-04-09T02:23:07.482Z,41.13
2023-04-09T02:25:09.140Z,42.13
2023-04-09T02:27:10.742Z,41.50
2023-04-09T02:29:12.225Z,41.47
2023-04-09T02:31:13.961Z,45.22
2023-04-09T02:33:15.623Z,40.22
2023-04-09T02:35:17.287Z,40.42
2023-04-09T02:37:18.758Z,43.65
2023-04-09T02:39:20.408Z,42.20
2023-04-09T02:41:21.986Z,38.53
2023-04-09T02:43:23.758Z,39.00
2023-04-09T02:45:25.403Z,45.40
2023-04-09T02:47:27.264Z,41.15
2023-04-09T02:49:28.869Z,44.47
2023-04-09T02:51:30.341Z,42.03
2023-04-09T02:53:31.900Z,40.35
2023-04-09T02:55:33.892Z,41.83
2023-04-09T02:57:36.356Z,43.60
2023-04-09T02:59:39.080Z,40.88
2023-04-09T03:01:41.014Z,41.15
2023-04-09T03:03:43.136Z,43.60
2023-04-09T03:05:44.941Z,40.40
2023-04-09T03:07:47.385Z,42.90
2023-04-09T03:09:48.909Z,41.75
2023-04-09T03:11:50.583Z,38.30
2023-04-09T03:13:52.058Z,45.70
2023-04-09T03:15:53.665Z,38.80
2023-04-09T03:17:55.231Z,37.63
2023-04-09T03:19:56.739Z,35.33
2023-04-09T03:21:58.536Z,39.83
2023-04-09T03:24:00.164Z,36.00
2023-04-09T03:26:03.254Z,38.28
2023-04-09T03:28:04.767Z,35.63
2023-04-09T03:30:06.727Z,38.90
2023-04-09T03:32:08.236Z,33.45
2023-04-09T03:34:09.751Z,31.48
2023-04-09T03:36:11.341Z,32.97
2023-04-09T03:38:12.973Z,36.70
2023-04-09T03:40:14.551Z,34.40
2023-04-09T03:42:16.105Z,34.20
2023-04-09T03:44:17.597Z,33.17
2023-04-09T03:46:19.155Z,37.72
2023-04-09T03:48:20.644Z,39.92
2023-04-09T03:50:22.152Z,34.70
2023-04-09T03:52:23.676Z,34.63
2023-04-09T03:54:25.173Z,38.45
2023-04-09T03:56:26.724Z,37.58
2023-04-09T03:58:28.223Z,35.25
2023-04-09T04:00:29.713Z,33.95
2023-04-09T04:02:33.758Z,35.85
2023-04-09T04:04:35.469Z,35.40
2023-04-09T04:06:36.984Z,31.50
2023-04-09T04:08:38.521Z,30.60
2023-04-09T04:10:40.301Z,33.38
2023-04-09T04:12:41.824Z,34.50
2023-04-09T04:14:43.419Z,34.20
2023-04-09T04:16:45.018Z,34.30
2023-04-09T04:18:46.606Z,33.53
2023-04-09T04:20:48.083Z,35.42
2023-04-09T04:22:49.590Z,31.58
2023-04-09T04:24:51.089Z,37.35
2023-04-09T04:26:52.545Z,35.22
2023-04-09T04:28:54.133Z,37.10
2023-04-09T04:30:55.924Z,33.83
2023-04-09T04:32:57.434Z,33.47
2023-04-09T04:34:58.990Z,42.08
2023-04-09T04:37:00.454Z,38.03
2023-04-09T04:39:01.998Z,32.25
2023-04-09T04:41:03.892Z,35.53
2023-04-09T04:43:05.409Z,38.60
2023-04-09T04:45:07.573Z,38.70
2023-04-09T04:47:09.132Z,39.28
2023-04-09T04:49:10.808Z,34.50
2023-04-09T04:51:12.279Z,38.22
2023-04-09T04:53:13.775Z,35.50
2023-04-09T04:55:15.375Z,32.20
2023-04-09T04:57:16.869Z,35.90
2023-04-09T04:59:18.430Z,32.55
2023-04-09T05:01:19.949Z,31.67
2023-04-09T05:03:21.561Z,35.95
2023-04-09T05:05:23.569Z,35.33
2023-04-09T05:07:25.069Z,32.45
2023-04-09T05:09:26.626Z,34.97
2023-04-09T05:11:28.465Z,34.05
2023-04-09T05:13:29.944Z,36.67
2023-04-09T05:15:31.468Z,37.80
2023-04-09T05:17:33.046Z,34.50
2023-04-09T05:19:34.577Z,36.17
2023-04-09T05:21:36.062Z,38.25
2023-04-09T05:23:37.604Z,37.55
2023-04-09T05:25:39.475Z,36.70
2023-04-09T05:27:41.031Z,38.53
2023-04-09T05:29:42.568Z,39.03
2023-04-09T05:31:44.176Z,37.60
2023-04-09T05:33:45.778Z,35.85
2023-04-09T05:35:47.301Z,36.55
2023-04-09T05:37:49.134Z,38.92
2023-04-09T05:39:50.903Z,37.05
2023-04-09T05:41:52.792Z,38.80
2023-04-09T05:43:54.492Z,38.67
2023-04-09T05:45:56.134Z,35.10
2023-04-09T05:47:57.663Z,33.58
2023-04-09T05:49:59.167Z,35.25
2023-04-09T05:52:00.760Z,33.95
2023-04-09T05:54:03.351Z,37.10
2023-04-09T05:56:13.376Z,34.17
2023-04-09T05:58:16.029Z,40.75
2023-04-09T06:00:18.366Z,38.20
2023-04-09T06:02:20.063Z,43.22
2023-04-09T06:04:21.863Z,32.92
2023-04-09T06:06:23.484Z,39.42
2023-04-09T06:08:24.962Z,41.83
2023-04-09T06:10:26.529Z,41.50
2023-04-09T06:12:28.075Z,43.53
2023-04-09T06:14:29.816Z,39.40
2023-04-09T06:16:32.852Z,40.38
2023-04-09T06:18:34.997Z,37.25
2023-04-09T06:20:36.494Z,39.35
2023-04-09T06:22:38.044Z,42.35
2023-04-09T06:24:39.582Z,37.67
2023-04-09T06:26:41.528Z,40.78
2023-04-09T06:28:43.251Z,38.80
2023-04-09T06:30:44.845Z,37.75
2023-04-09T06:32:54.590Z,38.40
2023-04-09T06:34:56.910Z,36.80
2023-04-09T06:36:58.405Z,39.15
2023-04-09T06:38:59.925Z,40.78
2023-04-09T06:41:01.383Z,40.33
2023-04-09T06:43:02.864Z,36.38
2023-04-09T06:45:08.505Z,34.25
2023-04-09T06:47:10.159Z,34.85
2023-04-09T06:49:11.711Z,35.17
2023-04-09T06:51:13.485Z,37.97
2023-04-09T06:53:15.442Z,39.10
2023-04-09T06:55:17.037Z,40.58
2023-04-09T06:57:18.490Z,37.20
2023-04-09T06:59:19.946Z,43.67
2023-04-09T07:01:21.489Z,33.40
2023-04-09T07:03:23.631Z,34.72
2023-04-09T07:05:25.277Z,37.67
2023-04-09T07:07:26.759Z,32.88
2023-04-09T07:09:28.228Z,32.13
2023-04-09T07:11:29.731Z,29.77
2023-04-09T07:13:32.960Z,31.88
2023-04-09T07:15:34.627Z,30.45
2023-04-09T07:17:36.175Z,29.33
2023-04-09T07:19:37.677Z,30.48
2023-04-09T07:21:39.259Z,30.10
2023-04-09T07:23:40.812Z,29.05
2023-04-09T07:25:42.461Z,27.98
2023-04-09T07:27:44.596Z,28.67
2023-04-09T07:29:46.621Z,26.42
2023-04-09T07:31:48.183Z,29.27
2023-04-09T07:33:49.720Z,27.75
2023-04-09T07:35:51.336Z,22.50
2023-04-09T07:37:52.987Z,29.40
2023-04-09T07:39:54.513Z,23.48
2023-04-09T07:41:57.437Z,24.77
2023-04-09T07:43:59.289Z,22.60
2023-04-09T07:46:00.733Z,22.77
2023-04-09T07:48:02.271Z,25.48
2023-04-09T07:50:04.103Z,26.20
2023-04-09T07:52:06.382Z,24.88
2023-04-09T07:54:08.914Z,25.50
2023-04-09T07:56:10.476Z,23.20
2023-04-09T07:58:12.035Z,22.52
2023-04-09T08:00:14.011Z,24.83
2023-04-09T08:02:15.701Z,24.92
2023-04-09T08:04:18.020Z,22.83
2023-04-09T08:06:19.872Z,22.48
2023-04-09T08:08:21.828Z,24.55
2023-04-09T08:10:23.354Z,21.15
2023-04-09T08:12:24.931Z,22.63
2023-04-09T08:14:26.479Z,23.60
2023-04-09T08:16:30.108Z,23.23
2023-04-09T08:18:31.699Z,23.95
2023-04-09T08:20:33.350Z,22.48
2023-04-09T08:22:34.829Z,24.65
2023-04-09T08:24:37.048Z,21.95
2023-04-09T08:26:39.907Z,24.10
2023-04-09T08:28:42.014Z,24.33
2023-04-09T08:30:44.149Z,23.95
2023-04-09T08:32:45.764Z,24.67
2023-04-09T08:34:47.361Z,22.23
2023-04-09T08:36:49.944Z,25.52
2023-04-09T08:38:53.263Z,29.23
2023-04-09T08:40:54.892Z,23.42
2023-04-09T08:42:59.429Z,23.48
2023-04-09T08:45:04.236Z,24.98
2023-04-09T08:47:11.651Z,19.88
2023-04-09T08:49:13.273Z,22.75
2023-04-09T08:51:24.821Z,24.60
2023-04-09T08:53:27.441Z,23.17
2023-04-09T08:55:29.285Z,18.95
2023-04-09T08:57:31.113Z,20.20
2023-04-09T08:59:36.896Z,22.45
2023-04-09T09:01:38.512Z,22.80
2023-04-09T09:04:08.955Z,26.02
2023-04-09T09:06:22.160Z,21.23
2023-04-09T09:08:24.899Z,20.83
2023-04-09T09:10:37.336Z,23.67
2023-04-09T09:12:41.081Z,21.10
2023-04-09T09:14:42.612Z,22.17
2023-04-09T09:16:57.762Z,21.00
2023-04-09T09:19:00.307Z,19.65
2023-04-09T09:21:11.299Z,18.73
2023-04-09T09:23:12.812Z,23.42
2023-04-09T09:25:14.292Z,23.60
2023-04-09T09:27:43.181Z,20.65
2023-04-09T09:29:45.123Z,21.80
2023-04-09T09:31:49.396Z,22.90
2023-04-09T09:33:51.626Z,23.30
2023-04-09T09:35:54.470Z,22.45
2023-04-09T09:38:05.336Z,20.58
2023-04-09T09:40:07.815Z,21.10
2023-04-09T09:42:09.412Z,22.48
2023-04-09T09:44:12.504Z,20.98
2023-04-09T09:46:15.392Z,22.80
2023-04-09T09:48:16.878Z,22.45
2023-04-09T09:50:19.006Z,23.95
2023-04-09T09:52:30.254Z,22.40
2023-04-09T09:54:40.964Z,20.90
2023-04-09T09:56:44.318Z,19.98
2023-04-09T09:58:53.500Z,23.48
2023-04-09T10:00:57.425Z,23.70
2023-04-09T10:03:21.372Z,21.55
2023-04-09T10:05:26.921Z,18.30
2023-04-09T10:07:29.587Z,21.33
2023-04-09T10:09:32.271Z,19.42
2023-04-09T10:11:36.580Z,19.75
2023-04-09T10:13:40.770Z,19.83
2023-04-09T10:15:44.675Z,20.98
2023-04-09T10:17:46.686Z,19.15
2023-04-09T10:19:56.871Z,18.52
2023-04-09T10:22:05.758Z,19.33
2023-04-09T10:24:09.143Z,19.30
2023-04-09T10:26:11.311Z,16.85
2023-04-09T10:28:23.298Z,18.80
2023-04-09T10:30:35.073Z,17.83
2023-04-09T10:32:36.854Z,18.02
2023-04-09T10:34:43.856Z,17.77
2023-04-09T10:36:49.676Z,17.98
2023-04-09T10:38:51.588Z,18.08
2023-04-09T10:40:53.375Z,17.40
2023-04-09T10:42:59.439Z,17.55
2023-04-09T10:45:11.523Z,15.93
2023-04-09T10:47:32.945Z,16.60
2023-04-09T10:49:38.398Z,17.75
2023-04-09T10:51:40.608Z,15.05
2023-04-09T10:53:42.234Z,17.48
2023-04-09T10:55:52.704Z,18.15
2023-04-09T10:57:54.217Z,20.13
2023-04-09T10:59:55.985Z,17.13
2023-04-09T11:01:57.600Z,17.55
2023-04-09T11:04:16.487Z,15.88
2023-04-09T11:06:21.368Z,15.48
2023-04-09T11:08:22.881Z,16.00
2023-04-09T11:10:24.490Z,17.00
2023-04-09T11:12:26.022Z,15.88
2023-04-09T11:14:27.729Z,20.42
2023-04-09T11:16:30.873Z,16.30
2023-04-09T11:18:34.826Z,14.93
2023-04-09T11:20:36.681Z,19.25
2023-04-09T11:22:38.618Z,16.48
2023-04-09T11:24:43.650Z,16.25
2023-04-09T11:26:45.936Z,14.85
2023-04-09T11:28:47.435Z,16.98
2023-04-09T11:30:51.412Z,15.18
2023-04-09T11:32:53.639Z,15.00
2023-04-09T11:34:57.058Z,18.67
2023-04-09T11:36:59.804Z,13.70
2023-04-09T11:39:02.471Z,15.30
2023-04-09T11:41:03.971Z,15.63
2023-04-09T11:43:08.232Z,14.25
2023-04-09T11:45:11.416Z,13.55
2023-04-09T11:47:18.589Z,16.95
2023-04-09T11:49:20.930Z,15.90
2023-04-09T11:51:23.409Z,15.27
2023-04-09T11:53:30.979Z,13.75
2023-04-09T11:55:33.688Z,13.98
2023-04-09T11:57:43.044Z,13.13
2023-04-09T11:59:45.217Z,13.23
2023-04-09T12:01:50.407Z,11.13
2023-04-09T12:03:54.505Z,18.35
2023-04-09T12:05:56.465Z,13.98
2023-04-09T12:08:08.037Z,19.20
2023-04-09T12:10:10.468Z,18.48
2023-04-09T12:12:12.097Z,24.80
2023-04-09T12:14:14.866Z,15.15
2023-04-09T12:16:21.138Z,16.20
2023-04-09T12:18:23.550Z,63.22
2023-04-09T12:20:35.639Z,13.88
2023-04-09T12:22:40.739Z,12.95
2023-04-09T12:24:42.293Z,16.35
2023-04-09T12:26:45.484Z,11.02
2023-04-09T12:28:46.953Z,11.20
2023-04-09T12:30:49.123Z,13.80
2023-04-09T12:32:52.559Z,11.70
2023-04-09T12:34:54.003Z,11.70
2023-04-09T12:36:55.564Z,12.52
2023-04-09T12:38:57.094Z,12.40
2023-04-09T12:40:59.036Z,11.95
2023-04-09T12:43:01.463Z,13.40
2023-04-09T12:45:03.087Z,14.05
2023-04-09T12:47:04.548Z,11.95
2023-04-09T12:49:06.428Z,11.55
2023-04-09T12:51:08.926Z,11.55
2023-04-09T12:53:10.549Z,10.60
2023-04-09T12:55:13.065Z,11.13
2023-04-09T12:57:14.570Z,10.25
2023-04-09T12:59:16.025Z,11.35
2023-04-09T13:01:18.134Z,11.68
2023-04-09T13:03:20.217Z,12.68
2023-04-09T13:05:21.859Z,12.23
2023-04-09T13:07:23.519Z,11.27
2023-04-09T13:09:25.742Z,9.75
2023-04-09T13:11:27.361Z,8.90
2023-04-09T13:13:28.822Z,9.70
2023-04-09T13:15:30.359Z,11.32
2023-04-09T13:17:31.856Z,8.23
2023-04-09T13:19:33.499Z,12.30
2023-04-09T13:21:36.001Z,7.38
2023-04-09T13:23:37.487Z,8.75
2023-04-09T13:25:39.043Z,9.50
2023-04-09T13:27:40.499Z,8.95
2023-04-09T13:29:41.982Z,10.30
2023-04-09T13:31:43.654Z,8.52
2023-04-09T13:33:45.255Z,9.27
2023-04-09T13:35:46.794Z,10.68
2023-04-09T13:37:48.288Z,11.15
2023-04-09T13:39:50.804Z,17.50
2023-04-09T13:41:52.406Z,11.02
2023-04-09T13:43:53.878Z,8.77
2023-04-09T13:45:55.910Z,7.90
2023-04-09T13:47:57.703Z,8.65
2023-04-09T13:49:59.215Z,10.43
2023-04-09T13:52:01.074Z,9.65
2023-04-09T13:54:04.530Z,10.73
2023-04-09T13:56:07.624Z,28.13
2023-04-09T13:58:09.362Z,10.10
2023-04-09T14:00:11.213Z,9.80
2023-04-09T14:02:13.001Z,9.30
2023-04-09T14:04:15.118Z,10.18
2023-04-09T14:06:16.781Z,9.15
2023-04-09T14:08:18.365Z,9.85
2023-04-09T14:10:19.858Z,11.60
2023-04-09T14:12:21.336Z,9.70
2023-04-09T14:14:22.950Z,8.98
2023-04-09T14:16:24.538Z,8.52
2023-04-09T14:18:26.076Z,10.15
2023-04-09T14:20:27.998Z,9.85
2023-04-09T14:22:29.918Z,8.90
2023-04-09T14:24:31.440Z,11.75
2023-04-09T14:26:32.905Z,11.10
2023-04-09T14:28:34.420Z,9.27
2023-04-09T14:30:35.979Z,9.48
2023-04-09T14:32:37.502Z,8.90
2023-04-09T14:34:39.103Z,10.75
2023-04-09T14:36:40.796Z,9.35
2023-04-09T14:38:42.254Z,12.10
2023-04-09T14:40:44.032Z,9.10
2023-04-09T14:42:45.648Z,10.20
2023-04-09T14:44:47.135Z,10.75
2023-04-09T14:46:48.612Z,9.75
2023-04-09T14:48:50.372Z,8.88
2023-04-09T14:50:52.337Z,8.93
2023-04-09T14:52:53.843Z,21.92
2023-04-09T14:54:55.350Z,10.60
2023-04-09T14:56:59.887Z,10.35
2023-04-09T14:59:01.371Z,8.75
2023-04-09T15:01:04.266Z,10.32
2023-04-09T15:03:05.885Z,8.85
2023-04-09T15:05:08.709Z,12.43
2023-04-09T15:07:10.164Z,9.52
2023-04-09T15:09:12.116Z,10.55
2023-04-09T15:11:18.187Z,9.55
2023-04-09T15:13:19.728Z,9.75
2023-04-09T15:15:21.207Z,9.20
2023-04-09T15:17:23.051Z,9.82
2023-04-09T15:19:24.556Z,8.60
2023-04-09T15:21:27.766Z,9.10
2023-04-09T15:23:29.350Z,7.93
2023-04-09T15:25:30.898Z,10.27
2023-04-09T15:27:32.750Z,10.60
2023-04-09T15:29:34.504Z,9.57
2023-04-09T15:31:36.326Z,10.27
2023-04-09T15:33:38.327Z,9.35
2023-04-09T15:35:39.858Z,8.82
2023-04-09T15:37:41.716Z,9.10
2023-04-09T15:39:43.331Z,8.63
2023-04-09T15:41:45.621Z,9.45
2023-04-09T15:43:47.086Z,8.68
2023-04-09T15:45:49.560Z,9.27
2023-04-09T15:47:51.218Z,9.02
2023-04-09T15:49:52.763Z,8.88
2023-04-09T15:51:54.258Z,8.85
2023-04-09T15:53:55.713Z,9.88
2023-04-09T15:55:58.204Z,10.02
2023-04-09T15:57:59.701Z,9.77
2023-04-09T16:00:01.331Z,7.88
2023-04-09T16:02:04.497Z,9.00
2023-04-09T16:04:06.082Z,9.43
2023-04-09T16:06:14.470Z,11.75
2023-04-09T16:08:16.089Z,9.30
2023-04-09T16:10:20.438Z,9.00
2023-04-09T16:12:23.270Z,9.85
2023-04-09T16:14:24.727Z,9.65
2023-04-09T16:16:26.302Z,11.23
2023-04-09T16:18:27.820Z,10.82
2023-04-09T16:20:29.432Z,9.00
2023-04-09T16:22:32.306Z,12.32
2023-04-09T16:24:33.952Z,8.82
2023-04-09T16:26:35.442Z,10.07
2023-04-09T16:28:36.894Z,9.77
2023-04-09T16:30:38.365Z,11.52
2023-04-09T16:32:39.856Z,9.10
2023-04-09T16:34:41.346Z,9.30
2023-04-09T16:36:42.874Z,8.68
2023-04-09T16:38:44.317Z,11.43
2023-04-09T16:40:45.967Z,10.48
2023-04-09T16:42:47.445Z,13.45
2023-04-09T16:44:49.351Z,11.88
2023-04-09T16:46:51.008Z,9.43
2023-04-09T16:48:52.738Z,9.35
2023-04-09T16:50:54.398Z,13.27
2023-04-09T16:52:55.907Z,13.98
2023-04-09T16:54:57.348Z,19.42
2023-04-09T16:56:58.811Z,15.57
2023-04-09T16:59:00.288Z,20.63
2023-04-09T17:01:02.204Z,16.38
2023-04-09T17:03:03.950Z,18.13
2023-04-09T17:05:06.064Z,16.33
2023-04-09T17:07:07.577Z,19.35
2023-04-09T17:09:09.414Z,17.52
2023-04-09T17:11:15.457Z,21.15
2023-04-09T17:13:17.315Z,25.30
2023-04-09T17:15:18.789Z,22.52
2023-04-09T17:17:20.320Z,20.20
2023-04-09T17:19:22.058Z,22.63
2023-04-09T17:21:23.595Z,23.95
2023-04-09T17:23:25.120Z,21.20
2023-04-09T17:25:27.065Z,22.08
2023-04-09T17:27:28.582Z,19.98
2023-04-09T17:29:30.998Z,21.40
2023-04-09T17:31:32.456Z,20.38
2023-04-09T17:33:33.947Z,21.98
2023-04-09T17:35:35.455Z,20.80
2023-04-09T17:37:38.653Z,22.05
2023-04-09T17:39:40.500Z,20.20
2023-04-09T17:41:45.296Z,23.33
2023-04-09T17:43:46.772Z,19.65
2023-04-09T17:45:49.246Z,21.63
2023-04-09T17:47:51.141Z,21.20
2023-04-09T17:49:52.806Z,21.95
2023-04-09T17:51:54.397Z,24.20
2023-04-09T17:53:56.284Z,21.65
2023-04-09T17:55:57.878Z,25.17
2023-04-09T17:57:59.399Z,23.55
2023-04-09T18:00:01.581Z,24.95
2023-04-09T18:02:03.575Z,22.83
2023-04-09T18:04:05.513Z,23.42
2023-04-09T18:06:07.620Z,24.33
2023-04-09T18:08:09.143Z,23.60
2023-04-09T18:10:10.911Z,21.70
2023-04-09T18:12:12.437Z,21.40
2023-04-09T18:14:13.997Z,22.58
2023-04-09T18:16:17.494Z,23.52
2023-04-09T18:18:19.082Z,22.60
2023-04-09T18:20:20.776Z,22.95
2023-04-09T18:22:22.605Z,25.15
2023-04-09T18:24:26.217Z,22.92
2023-04-09T18:26:27.661Z,22.30
2023-04-09T18:28:29.356Z,22.27
2023-04-09T18:30:31.426Z,26.40
2023-04-09T18:32:33.566Z,27.30
2023-04-09T18:34:35.236Z,25.90
2023-04-09T18:36:36.795Z,23.08
2023-04-09T18:38:38.473Z,25.95
2023-04-09T18:40:44.276Z,26.45
2023-04-09T18:42:51.692Z,26.27
2023-04-09T18:44:53.213Z,23.77
2023-04-09T18:46:54.901Z,24.50
2023-04-09T18:48:56.461Z,24.75
2023-04-09T18:50:58.974Z,21.83
2023-04-09T18:53:00.971Z,26.52
2023-04-09T18:55:02.457Z,24.48
2023-04-09T18:57:04.216Z,25.73
2023-04-09T18:59:05.759Z,25.00
2023-04-09T19:01:11.803Z,28.33
2023-04-09T19:03:13.563Z,24.52
2023-04-09T19:05:15.283Z,24.20
2023-04-09T19:07:17.114Z,23.10
2023-04-09T19:09:19.079Z,26.30
2023-04-09T19:11:20.533Z,28.30
2023-04-09T19:13:22.004Z,27.15
2023-04-09T19:15:26.314Z,28.75
2023-04-09T19:17:28.242Z,24.95
2023-04-09T19:19:29.893Z,28.70
2023-04-09T19:21:31.525Z,26.40
2023-04-09T19:23:34.535Z,28.48
2023-04-09T19:25:36.191Z,26.98
2023-04-09T19:27:38.812Z,28.55
2023-04-09T19:29:40.400Z,26.15
2023-04-09T19:31:41.960Z,32.47
2023-04-09T19:33:43.500Z,31.73
2023-04-09T19:35:47.943Z,30.02
2023-04-09T19:37:49.484Z,37.03
2023-04-09T19:39:51.061Z,32.40
2023-04-09T19:41:52.598Z,32.83
2023-04-09T19:43:54.079Z,31.08
2023-04-09T19:45:56.371Z,31.27
2023-04-09T19:47:57.867Z,33.08
2023-04-09T19:49:59.851Z,29.35
2023-04-09T19:52:01.326Z,27.38
2023-04-09T19:54:02.786Z,29.15
2023-04-09T19:56:04.523Z,31.02
2023-04-09T19:58:06.904Z,31.60
2023-04-09T20:00:08.855Z,33.53
2023-04-09T20:02:10.626Z,34.67
2023-04-09T20:04:12.917Z,32.50
2023-04-09T20:06:14.572Z,31.25
2023-04-09T20:08:16.659Z,32.33
2023-04-09T20:10:18.690Z,31.25
2023-04-09T20:12:21.718Z,32.90
2023-04-09T20:14:23.278Z,33.38
2023-04-09T20:16:24.768Z,31.38
2023-04-09T20:18:26.277Z,34.38
2023-04-09T20:20:27.767Z,30.20
2023-04-09T20:22:29.493Z,33.38
2023-04-09T20:24:31.033Z,32.80
2023-04-09T20:26:32.523Z,33.03
2023-04-09T20:28:35.142Z,32.78
2023-04-09T20:30:36.932Z,33.72
2023-04-09T20:32:38.450Z,31.73
2023-04-09T20:34:40.022Z,34.88
2023-04-09T20:36:43.657Z,40.75
2023-04-09T20:38:45.413Z,32.13
2023-04-09T20:40:47.074Z,37.95
2023-04-09T20:42:48.693Z,38.17
2023-04-09T20:44:50.193Z,36.10
2023-04-09T20:46:51.981Z,37.25
2023-04-09T20:48:53.673Z,37.97
2023-04-09T20:50:56.723Z,37.53
2023-04-09T20:52:58.799Z,40.42
2023-04-09T20:55:00.828Z,38.45
2023-04-09T20:57:03.462Z,38.83
2023-04-09T20:59:04.998Z,39.88
2023-04-09T21:01:09.137Z,38.40
2023-04-09T21:03:10.826Z,41.13
2023-04-09T21:05:22.833Z,38.40
2023-04-09T21:07:25.222Z,41.03
2023-04-09T21:09:26.792Z,45.75
2023-04-09T21:11:29.106Z,42.17
2023-04-09T21:13:33.681Z,39.63
2023-04-09T21:15:39.286Z,37.75
2023-04-09T21:17:40.922Z,41.00
2023-04-09T21:19:42.677Z,39.20
2023-04-09T21:21:44.173Z,41.90
2023-04-09T21:23:45.674Z,40.30
2023-04-09T21:25:47.147Z,42.20
2023-04-09T21:27:48.613Z,39.17
2023-04-09T21:29:50.287Z,42.65
2023-04-09T21:31:51.755Z,43.28
2023-04-09T21:33:53.310Z,47.40
2023-04-09T21:35:54.803Z,60.58
2023-04-09T21:37:56.787Z,63.25
2023-04-09T21:39:58.264Z,62.25
2023-04-09T21:42:00.158Z,56.55
2023-04-09T21:44:07.904Z,48.83
2023-04-09T21:46:09.467Z,49.47
2023-04-09T21:48:12.364Z,50.55
2023-04-09T21:50:14.683Z,55.00
2023-04-09T21:52:17.157Z,44.97
2023-04-09T21:54:18.633Z,41.28
2023-04-09T21:56:20.350Z,45.17
2023-04-09T21:58:21.873Z,41.58
2023-04-09T22:00:23.342Z,44.08
2023-04-09T22:02:24.973Z,50.53
2023-04-09T22:04:27.110Z,42.63
2023-04-09T22:06:29.301Z,43.20
2023-04-09T22:08:30.893Z,46.80
2023-04-09T22:10:32.416Z,46.85
2023-04-09T22:12:36.090Z,43.85
2023-04-09T22:14:39.124Z,44.85
2023-04-09T22:16:41.561Z,45.58
2023-04-09T22:18:43.033Z,42.97
2023-04-09T22:20:44.504Z,48.78
2023-04-09T22:22:46.050Z,40.88
2023-04-09T22:24:47.533Z,40.28
2023-04-09T22:26:49.014Z,45.08
2023-04-09T22:28:50.804Z,41.50
2023-04-09T22:30:52.961Z,44.42
2023-04-09T22:32:54.534Z,41.65
2023-04-09T22:34:56.032Z,42.30
2023-04-09T22:36:57.725Z,46.20
2023-04-09T22:38:59.253Z,46.08
2023-04-09T22:41:01.562Z,41.97
2023-04-09T22:43:03.222Z,41.25
2023-04-09T22:45:05.026Z,41.80
2023-04-09T22:47:06.488Z,43.72
2023-04-09T22:49:08.499Z,43.70
2023-04-09T22:51:10.219Z,45.08
2023-04-09T22:53:12.170Z,44.75
2023-04-09T22:55:13.913Z,42.92
2023-04-09T22:57:15.479Z,42.03
2023-04-09T22:59:17.456Z,39.38
2023-04-09T23:01:22.145Z,40.83
2023-04-09T23:03:24.034Z,36.72
2023-04-09T23:05:25.678Z,40.15
2023-04-09T23:07:27.367Z,43.15
2023-04-09T23:09:30.832Z,41.60
2023-04-09T23:11:32.345Z,37.33
2023-04-09T23:13:33.829Z,42.40
2023-04-09T23:15:35.307Z,42.03
2023-04-09T23:17:36.916Z,42.78
2023-04-09T23:19:38.408Z,40.05
2023-04-09T23:21:39.916Z,42.53
2023-04-09T23:23:41.411Z,41.80
2023-04-09T23:25:42.952Z,42.78
2023-04-09T23:27:44.836Z,40.03
2023-04-09T23:29:46.728Z,41.90
2023-04-09T23:31:48.240Z,40.58
2023-04-09T23:33:49.852Z,41.97
2023-04-09T23:35:51.455Z,37.72
2023-04-09T23:37:52.961Z,39.45
2023-04-09T23:39:54.458Z,41.92
2023-04-09T23:41:56.275Z,46.20
2023-04-09T23:43:57.763Z,38.83
2023-04-09T23:45:59.279Z,36.90
2023-04-09T23:48:00.786Z,39.85
2023-04-09T23:50:07.360Z,41.38
2023-04-09T23:52:08.941Z,40.58
2023-04-09T23:54:10.606Z,42.25
2023-04-09T23:56:14.431Z,44.05
2023-04-09T23:58:16.034Z,45.05
